Time;durP1;ratioP1;P1;durP2;ratioP2;P2;SDS_P1;SDS_P2;PMS_P1;PMS_P2;Temp;Humidity;BMP_temperature;BMP_pressure;BME280_temperature;BME280_humidity;BME280_pressure;Samples;Min_cycle;Max_cycle;Signal;HPM_P1;HPM_P2
2022/07/29 00:00:39;;;;;;;;;6.67;6.00;;;;;22.34;34.19;100996.63;5017321;28;45375;-66
2022/07/29 00:03:05;;;;;;;;;8.00;7.00;;;;;22.32;34.27;100996.00;5016239;28;45511;-66
2022/07/29 00:05:30;;;;;;;;;6.67;6.67;;;;;22.11;34.07;100961.94;5032363;28;47780;-66
2022/07/29 00:07:56;;;;;;;;;5.67;5.67;;;;;22.82;34.11;101074.78;5017086;28;45598;-67
2022/07/29 00:10:21;;;;;;;;;6.00;6.00;;;;;22.82;34.51;101075.63;5015859;28;45481;-65
2022/07/29 00:12:47;;;;;;;;;5.33;5.33;;;;;22.80;34.32;101066.84;5017401;28;45338;-66
2022/07/29 00:15:13;;;;;;;;;6.00;5.00;;;;;22.60;34.43;101031.72;5016963;28;45658;-65
2022/07/29 00:17:38;;;;;;;;;6.00;5.00;;;;;22.81;34.45;101051.41;5016824;28;45441;-66
2022/07/29 00:20:04;;;;;;;;;7.00;6.00;;;;;22.82;34.34;101055.81;5017251;28;45736;-66
2022/07/29 00:22:29;;;;;;;;;6.00;6.00;;;;;22.81;34.65;101051.41;5032605;28;45521;-66
2022/07/29 00:24:55;;;;;;;;;5.00;5.00;;;;;22.68;34.53;101036.91;5031986;28;46424;-66
2022/07/29 00:27:20;;;;;;;;;7.00;7.00;;;;;22.64;35.00;101041.09;5016649;28;45331;-65
2022/07/29 00:29:45;;;;;;;;;9.33;7.33;;;;;22.04;35.06;100963.81;5017113;28;45406;-66
2022/07/29 00:32:11;;;;;;;;;7.67;6.67;;;;;22.33;35.24;101019.34;5017397;28;45502;-66
2022/07/29 00:37:20;;;;;;;;;6.00;5.00;;;;;21.87;35.56;100966.16;5016740;28;45320;-64
2022/07/29 00:39:46;;;;;;;;;4.00;4.00;;;;;22.22;35.81;101033.53;5016716;28;45493;-65
2022/07/29 00:42:11;;;;;;;;;5.33;5.33;;;;;22.26;35.89;101026.69;5016975;28;45250;-67
2022/07/29 00:44:39;;;;;;;;;5.00;5.00;;;;;22.19;35.81;101020.44;5016450;28;45855;-66
2022/07/29 00:47:05;;;;;;;;;5.33;5.33;;;;;21.89;35.66;100960.53;5016451;28;45462;-67
2022/07/29 00:49:30;;;;;;;;;5.67;4.67;;;;;22.34;35.60;101029.13;5016462;28;45236;-66
2022/07/29 00:51:56;;;;;;;;;5.00;4.33;;;;;22.40;35.61;101039.09;5016806;28;45549;-65
2022/07/29 00:54:22;;;;;;;;;5.67;5.67;;;;;22.23;35.59;101016.28;5016458;28;46278;-65
2022/07/29 00:56:47;;;;;;;;;5.33;5.33;;;;;22.37;35.87;101040.38;5016412;28;45447;-66
2022/07/29 00:59:13;;;;;;;;;8.67;7.00;;;;;22.37;35.46;101034.13;5016601;28;45973;-66
2022/07/29 01:01:38;;;;;;;;;6.33;5.00;;;;;22.41;35.61;101043.47;5018838;28;45568;-66
2022/07/29 01:04:06;;;;;;;;;6.00;6.00;;;;;22.40;35.59;101028.25;5020007;28;45766;-65
2022/07/29 01:06:32;;;;;;;;;6.67;5.00;;;;;22.40;35.69;101033.69;5019834;28;45345;-66
2022/07/29 01:08:58;;;;;;;;;5.00;5.00;;;;;22.40;35.61;101039.09;5019978;28;45273;-65
2022/07/29 01:11:23;;;;;;;;;5.33;4.67;;;;;22.35;35.66;101019.97;5020347;28;45520;-66
2022/07/29 01:13:49;;;;;;;;;5.33;5.33;;;;;22.42;35.57;101024.28;5019635;28;46392;-66
2022/07/29 01:16:42;;;;;;;;;6.67;6.00;;;;;22.42;35.90;101037.00;5018262;28;45286;-67
2022/07/29 01:19:38;;;;;;;;;5.33;5.33;;;;;22.33;35.78;101024.75;5035307;28;45258;-66
2022/07/29 01:22:18;;;;;;;;;7.67;7.00;;;;;22.33;35.76;101027.47;5019841;28;45722;-66
2022/07/29 01:25:17;;;;;;;;;5.00;5.00;;;;;22.36;36.17;101032.44;5034692;28;48636;-66
2022/07/29 01:28:03;;;;;;;;;6.33;6.33;;;;;22.32;35.93;101039.34;5019335;28;45438;-67
2022/07/29 01:30:32;;;;;;;;;7.67;7.67;;;;;22.33;36.23;101043.72;5019578;28;45198;-64
2022/07/29 01:33:01;;;;;;;;;8.00;8.00;;;;;22.25;36.17;101025.84;5019489;28;45446;-65
2022/07/29 01:35:36;;;;;;;;;7.00;5.67;;;;;22.37;36.07;101037.66;5019222;28;45498;-65
2022/07/29 01:38:07;;;;;;;;;8.00;6.00;;;;;22.37;35.86;101043.06;5019409;28;45330;-65
2022/07/29 01:40:53;;;;;;;;;6.33;5.67;;;;;21.85;36.13;100955.53;5019791;28;45451;-65
2022/07/29 01:43:23;;;;;;;;;5.67;5.67;;;;;22.29;35.84;101028.94;5034888;28;45298;-65
2022/07/29 01:46:00;;;;;;;;;8.00;7.33;;;;;22.36;36.27;101041.41;5019015;28;48060;-65
2022/07/29 01:48:34;;;;;;;;;8.00;7.00;;;;;22.36;36.17;101049.53;5019261;28;45308;-64
2022/07/29 01:51:22;;;;;;;;;6.33;6.00;;;;;22.36;36.12;101049.53;5019235;28;45305;-65
2022/07/29 01:53:54;;;;;;;;;8.33;7.00;;;;;22.35;36.18;101047.88;5019315;28;45468;-65
2022/07/29 01:56:22;;;;;;;;;5.00;5.00;;;;;22.17;36.10;101023.34;5018790;28;46885;-65
2022/07/29 01:58:51;;;;;;;;;5.00;5.00;;;;;22.35;35.85;101058.72;5019151;28;45399;-66
2022/07/29 02:01:18;;;;;;;;;6.67;5.00;;;;;22.29;35.86;101040.63;5019084;28;45273;-66
2022/07/29 02:03:45;;;;;;;;;6.67;5.67;;;;;22.29;36.01;101045.19;5017918;28;45418;-64
2022/07/29 02:06:15;;;;;;;;;5.33;5.00;;;;;20.71;36.06;100792.00;5018836;28;46249;-66
2022/07/29 02:08:42;;;;;;;;;5.00;5.00;;;;;22.14;36.22;101026.50;5018854;28;45390;-64
2022/07/29 02:11:08;;;;;;;;;4.33;4.33;;;;;22.27;36.35;101045.41;5019004;28;45525;-64
2022/07/29 02:13:36;;;;;;;;;11.67;9.67;;;;;22.29;36.34;101050.63;5018202;28;45388;-66
2022/07/29 02:16:07;;;;;;;;;7.33;6.00;;;;;22.28;36.07;101055.22;5018540;28;45801;-64
2022/07/29 02:18:36;;;;;;;;;5.00;5.00;;;;;22.21;36.25;101043.53;5018783;28;45543;-65
2022/07/29 02:21:03;;;;;;;;;5.00;5.00;;;;;22.28;36.22;101052.50;5019703;28;45497;-65
2022/07/29 02:23:30;;;;;;;;;6.67;6.67;;;;;21.75;36.39;100959.72;5018764;28;45347;-65
2022/07/29 02:25:58;;;;;;;;;5.33;5.00;;;;;21.60;36.63;100942.88;5018926;28;46813;-68
2022/07/29 02:28:29;;;;;;;;;6.67;6.67;;;;;22.25;36.52;101044.81;5018841;28;45431;-65
2022/07/29 02:30:59;;;;;;;;;5.00;5.00;;;;;22.15;36.55;101034.41;5018667;28;45517;-66
2022/07/29 02:33:25;;;;;;;;;5.00;5.00;;;;;21.73;36.61;100961.81;5018833;28;45388;-66
2022/07/29 02:35:51;;;;;;;;;9.00;7.67;;;;;22.25;36.63;101060.22;5018603;28;45752;-66
2022/07/29 02:41:07;;;;;;;;;6.00;6.00;;;;;22.21;36.71;101048.13;5018945;28;45447;-67
2022/07/29 02:43:34;;;;;;;;;7.00;7.00;;;;;22.15;36.69;101039.81;5034222;28;45303;-64
2022/07/29 02:46:02;;;;;;;;;5.67;5.67;;;;;22.17;36.87;101056.69;5018428;28;47500;-66
2022/07/29 02:48:36;;;;;;;;;5.00;5.00;;;;;22.05;36.85;101028.63;5018417;28;45560;-67
2022/07/29 02:51:11;;;;;;;;;6.00;6.00;;;;;22.17;36.94;101059.38;5018215;28;45461;-66
2022/07/29 02:53:38;;;;;;;;;6.67;6.67;;;;;22.17;36.89;101066.69;5018662;28;45469;-66
2022/07/29 02:56:16;;;;;;;;;8.00;5.00;;;;;21.96;36.65;101032.53;5019048;28;46798;-65
2022/07/29 02:58:49;;;;;;;;;6.33;6.33;;;;;22.03;36.70;101038.78;5018833;28;45442;-67
2022/07/29 03:01:18;;;;;;;;;7.67;6.67;;;;;21.86;36.90;101016.75;5017435;28;45428;-65
2022/07/29 03:03:46;;;;;;;;;6.33;6.33;;;;;22.11;36.83;101057.53;5033560;28;45518;-65
2022/07/29 03:06:14;;;;;;;;;7.00;7.00;;;;;21.93;36.95;101027.56;5017898;28;45715;-65
2022/07/29 03:08:40;;;;;;;;;4.00;4.00;;;;;21.93;37.38;101026.72;5017726;28;45514;-66
2022/07/29 03:11:08;;;;;;;;;7.00;5.67;;;;;21.98;37.17;101040.44;5016706;28;45276;-65
2022/07/29 03:13:35;;;;;;;;;5.00;4.67;;;;;22.11;37.03;101062.94;5018209;28;45249;-65
2022/07/29 03:16:02;;;;;;;;;6.33;6.33;;;;;22.06;37.56;101062.75;5016350;28;46892;-66
2022/07/29 03:18:28;;;;;;;;;10.00;7.00;;;;;21.98;37.39;101052.09;5017486;28;45541;-66
2022/07/29 03:20:53;;;;;;;;;7.33;4.67;;;;;22.03;37.58;101060.44;5033181;28;45309;-66
2022/07/29 03:23:22;;;;;;;;;5.00;4.00;;;;;22.00;37.00;101060.84;5018235;28;45425;-66
2022/07/29 03:25:48;;;;;;;;;5.00;5.00;;;;;22.05;37.55;101077.34;5017716;28;45713;-66
2022/07/29 03:28:14;;;;;;;;;5.67;5.33;;;;;22.03;37.27;101074.00;5017492;28;45229;-66
2022/07/29 03:30:39;;;;;;;;;6.00;6.00;;;;;22.04;37.29;101072.13;5017877;28;45323;-66
2022/07/29 03:33:05;;;;;;;;;7.67;7.67;;;;;22.03;37.28;101070.44;5017941;28;45593;-66
2022/07/29 03:35:31;;;;;;;;;7.33;6.67;;;;;22.01;37.30;101065.22;5017602;28;45745;-66
2022/07/29 03:37:57;;;;;;;;;6.00;6.00;;;;;22.00;37.46;101066.25;5016194;28;45477;-66
2022/07/29 03:40:27;;;;;;;;;10.67;10.67;;;;;21.83;37.25;101032.59;5017751;28;45425;-65
2022/07/29 03:42:55;;;;;;;;;13.33;10.33;;;;;22.00;37.39;101068.97;5017655;28;45683;-65
2022/07/29 03:45:22;;;;;;;;;8.67;7.33;;;;;21.98;37.02;101070.22;5017061;28;46587;-66
2022/07/29 03:47:56;;;;;;;;;6.00;6.00;;;;;21.94;37.26;101072.53;5017061;28;45523;-67
2022/07/29 03:50:22;;;;;;;;;9.00;7.33;;;;;21.93;37.17;101075.44;5017340;28;45234;-66
2022/07/29 03:52:48;;;;;;;;;8.00;7.00;;;;;21.92;37.40;101069.22;5017511;28;45317;-65
2022/07/29 03:55:15;;;;;;;;;7.00;5.33;;;;;21.90;37.37;101065.06;5017096;28;46389;-65
2022/07/29 03:57:41;;;;;;;;;6.00;6.00;;;;;21.83;37.71;101062.38;5017181;28;45279;-67
2022/07/29 04:00:08;;;;;;;;;6.67;6.67;;;;;21.83;37.65;101059.66;5016991;28;45341;-66
2022/07/29 04:02:35;;;;;;;;;8.00;7.00;;;;;21.92;37.49;101074.63;5016922;28;45241;-66
2022/07/29 04:05:00;;;;;;;;;8.33;6.33;;;;;21.82;37.76;101064.25;5016453;28;45652;-66
2022/07/29 04:07:26;;;;;;;;;8.67;8.67;;;;;21.92;37.63;101077.31;5016415;28;45426;-66
2022/07/29 04:09:51;;;;;;;;;8.67;8.33;;;;;21.18;37.56;100964.75;5017091;28;45434;-65
2022/07/29 04:12:17;;;;;;;;;8.00;6.00;;;;;21.80;37.96;101070.88;5017413;28;45322;-66
2022/07/29 04:14:42;;;;;;;;;8.67;8.67;;;;;21.80;37.94;101069.00;5016821;28;45927;-66
2022/07/29 04:17:07;;;;;;;;;6.33;6.33;;;;;21.92;38.09;101085.44;5016986;28;45501;-65
2022/07/29 04:19:33;;;;;;;;;8.33;7.33;;;;;21.87;38.39;101087.97;5015734;28;45353;-63
2022/07/29 04:22:00;;;;;;;;;11.00;10.00;;;;;21.32;38.44;100984.56;5017018;28;45299;-65
2022/07/29 04:24:25;;;;;;;;;9.67;9.67;;;;;21.37;38.43;101000.97;5016748;28;45903;-65
2022/07/29 04:26:51;;;;;;;;;8.33;7.67;;;;;21.75;38.74;101067.97;5016246;28;45308;-64
2022/07/29 04:29:16;;;;;;;;;11.33;10.33;;;;;21.86;38.79;101087.13;5017043;28;45325;-65
2022/07/29 04:31:42;;;;;;;;;8.00;8.00;;;;;21.87;38.59;101087.97;5016670;28;45367;-65
2022/07/29 04:34:08;;;;;;;;;17.67;15.33;;;;;21.88;38.47;101089.63;5016494;28;47747;-65
2022/07/29 04:36:34;;;;;;;;;10.67;10.67;;;;;21.70;38.74;101059.66;5033631;28;45255;-64
2022/07/29 04:39:00;;;;;;;;;13.00;10.67;;;;;21.92;38.83;101092.75;5020174;28;45321;-65
2022/07/29 04:41:26;;;;;;;;;13.00;11.33;;;;;21.92;38.99;101090.88;5020602;28;45349;-68
2022/07/29 04:43:51;;;;;;;;;7.33;6.33;;;;;21.94;39.59;101099.59;5020547;28;45588;-64
2022/07/29 04:46:17;;;;;;;;;9.33;8.00;;;;;21.95;39.21;101103.97;5019617;28;45394;-67
2022/07/29 04:48:45;;;;;;;;;16.67;11.33;;;;;21.95;40.07;101101.25;5020018;28;45412;-66
2022/07/29 04:51:10;;;;;;;;;7.00;6.00;;;;;21.99;39.57;101101.66;5019977;28;45273;-64
2022/07/29 04:53:35;;;;;;;;;12.33;10.67;;;;;21.90;39.04;101098.38;5019986;28;45475;-65
2022/07/29 04:56:02;;;;;;;;;10.00;8.00;;;;;22.03;39.38;101102.94;5019619;28;45332;-66
2022/07/29 04:58:27;;;;;;;;;7.67;7.67;;;;;22.04;38.86;101089.22;5020186;28;45423;-67
2022/07/29 05:00:52;;;;;;;;;8.33;7.67;;;;;20.81;39.10;100879.69;5020180;28;45245;-64
2022/07/29 05:03:18;;;;;;;;;11.33;8.33;;;;;22.17;38.54;101094.59;5019599;28;45522;-66
2022/07/29 05:05:43;;;;;;;;;10.33;7.67;;;;;22.25;38.52;101100.84;5019975;28;45529;-65
2022/07/29 05:08:09;;;;;;;;;11.67;10.67;;;;;22.31;38.29;101100.00;5019846;28;45320;-66
2022/07/29 05:10:37;;;;;;;;;8.33;7.33;;;;;22.40;37.95;101093.28;5020054;28;45218;-64
2022/07/29 05:13:06;;;;;;;;;8.67;8.67;;;;;22.53;37.58;101098.66;5019101;28;46464;-66
2022/07/29 05:15:33;;;;;;;;;9.33;8.00;;;;;22.36;37.55;101064.97;5019276;28;45459;-65
2022/07/29 05:17:59;;;;;;;;;10.33;8.67;;;;;22.68;37.54;101096.53;5019323;28;45187;-65
2022/07/29 05:20:28;;;;;;;;;9.00;9.00;;;;;22.83;36.88;101100.88;5019888;28;45214;-66
2022/07/29 05:22:57;;;;;;;;;6.00;6.00;;;;;22.54;36.84;101045.31;5019490;28;45728;-67
2022/07/29 05:25:23;;;;;;;;;10.33;10.33;;;;;22.81;36.60;101070.38;5019219;28;45196;-66
2022/07/29 05:27:48;;;;;;;;;11.00;9.00;;;;;22.99;36.92;101092.22;5019410;28;45242;-66
2022/07/29 05:30:13;;;;;;;;;10.00;8.00;;;;;22.94;36.93;101073.91;5035119;28;45314;-65
2022/07/29 05:32:39;;;;;;;;;8.00;8.00;;;;;23.13;36.71;101096.53;5019420;28;46644;-66
2022/07/29 05:35:05;;;;;;;;;12.33;11.00;;;;;23.12;37.71;101092.16;5034496;28;45376;-66
2022/07/29 05:37:30;;;;;;;;;9.67;8.00;;;;;22.75;36.94;101034.97;5019403;28;45260;-67
2022/07/29 05:39:56;;;;;;;;;8.00;8.00;;;;;23.20;37.50;101105.44;5018361;28;45462;-66
2022/07/29 05:42:21;;;;;;;;;11.33;8.33;;;;;22.70;37.57;101029.38;5034327;28;47696;-67
2022/07/29 05:44:47;;;;;;;;;8.33;7.33;;;;;23.20;36.89;101107.34;5019077;28;45177;-65
2022/07/29 05:47:13;;;;;;;;;10.33;10.33;;;;;23.20;37.53;101101.91;5018182;28;45677;-66
2022/07/29 05:49:39;;;;;;;;;15.00;9.00;;;;;23.06;37.37;101087.63;5019128;28;45445;-66
2022/07/29 05:52:04;;;;;;;;;8.00;8.00;;;;;23.21;37.20;101109.81;5018748;28;45327;-67
2022/07/29 05:54:30;;;;;;;;;9.67;9.67;;;;;23.25;37.52;101121.09;5019091;28;45435;-66
2022/07/29 05:56:55;;;;;;;;;9.33;8.33;;;;;23.28;36.97;101113.34;5018973;28;45315;-65
2022/07/29 05:59:21;;;;;;;;;11.00;10.67;;;;;23.26;37.10;101115.44;5019159;28;45486;-66
2022/07/29 06:01:46;;;;;;;;;11.67;9.67;;;;;23.10;37.08;101067.16;5018620;28;46627;-66
2022/07/29 06:04:12;;;;;;;;;8.33;8.33;;;;;23.42;36.19;101121.38;5018706;28;45399;-66
2022/07/29 06:06:37;;;;;;;;;8.33;8.33;;;;;23.43;36.36;101114.94;5018793;28;45500;-64
2022/07/29 06:09:03;;;;;;;;;8.00;8.00;;;;;23.54;35.96;101127.78;5018949;28;45258;-65
2022/07/29 06:11:28;;;;;;;;;9.00;8.00;;;;;22.70;35.83;100985.19;5018735;28;45884;-67
2022/07/29 06:13:53;;;;;;;;;9.00;8.67;;;;;23.27;36.15;101067.44;5018901;28;45414;-67
2022/07/29 06:16:19;;;;;;;;;6.00;6.00;;;;;23.74;35.38;101123.06;5018515;28;45386;-67
2022/07/29 06:18:45;;;;;;;;;9.00;9.00;;;;;23.71;35.62;101103.66;5033993;28;45255;-66
2022/07/29 06:21:10;;;;;;;;;7.67;7.33;;;;;24.03;35.05;101137.88;5017095;28;48153;-66
2022/07/29 06:23:37;;;;;;;;;22.00;18.67;;;;;24.20;34.72;101135.38;5017338;28;45891;-64
2022/07/29 06:26:03;;;;;;;;;8.00;8.00;;;;;24.38;34.89;101134.59;5018498;28;45497;-66
2022/07/29 06:28:28;;;;;;;;;9.67;7.33;;;;;24.56;34.39;101132.72;5018335;28;45676;-65
2022/07/29 06:30:54;;;;;;;;;6.00;6.00;;;;;24.70;33.85;101129.84;5018144;28;45699;-67
2022/07/29 06:33:19;;;;;;;;;6.00;6.00;;;;;24.90;33.25;101141.31;5018416;28;45363;-67
2022/07/29 06:35:47;;;;;;;;;7.00;7.00;;;;;25.13;33.43;101137.91;5033496;28;45282;-64
2022/07/29 06:38:13;;;;;;;;;8.00;8.00;;;;;25.26;33.32;101126.00;5018617;28;45455;-67
2022/07/29 06:41:02;;;;;;;;;8.67;7.67;;;;;25.64;32.34;101141.97;5018316;28;46738;-67
2022/07/29 06:43:31;;;;;;;;;7.33;6.33;;;;;25.69;32.01;101080.31;5018247;28;45348;-67
2022/07/29 06:45:56;;;;;;;;;7.33;6.67;;;;;26.59;31.44;101133.59;5018354;28;45420;-67
2022/07/29 06:48:21;;;;;;;;;9.67;9.33;;;;;26.93;30.83;101093.66;5018545;28;45295;-66
2022/07/29 06:50:47;;;;;;;;;6.33;6.00;;;;;27.99;29.27;101132.13;5033004;28;46443;-66
2022/07/29 06:53:20;;;;;;;;;7.00;7.00;;;;;28.85;28.29;101146.22;5018106;28;45258;-67
2022/07/29 06:55:45;;;;;;;;;9.33;9.33;;;;;29.52;27.54;101137.66;5017938;28;45462;-68
2022/07/29 06:58:11;;;;;;;;;7.00;7.00;;;;;30.40;26.23;101127.88;5017916;28;45454;-67
2022/07/29 07:00:37;;;;;;;;;7.33;6.67;;;;;31.14;25.18;101124.06;5016246;28;47933;-67
2022/07/29 07:03:02;;;;;;;;;8.00;8.00;;;;;31.90;24.09;101126.09;5016361;28;45346;-67
2022/07/29 07:05:28;;;;;;;;;8.00;8.00;;;;;32.50;23.26;101135.34;5018064;28;45294;-66
2022/07/29 07:07:53;;;;;;;;;7.67;7.67;;;;;33.16;22.73;101140.53;5033047;28;45683;-67
2022/07/29 07:10:18;;;;;;;;;10.33;7.33;;;;;33.64;22.06;101136.09;5017808;28;46077;-68
2022/07/29 07:12:44;;;;;;;;;9.00;9.00;;;;;34.12;21.64;101153.59;5017522;28;45457;-67
2022/07/29 07:15:09;;;;;;;;;6.67;6.67;;;;;33.49;20.87;100985.41;5016404;28;45291;-67
2022/07/29 07:17:35;;;;;;;;;9.33;8.00;;;;;34.85;21.38;101148.94;5017939;28;45230;-68
2022/07/29 07:20:00;;;;;;;;;14.00;14.00;;;;;35.09;20.28;101110.19;5032721;28;48345;-67
2022/07/29 07:22:25;;;;;;;;;8.33;7.33;;;;;35.73;19.93;101144.59;5017278;28;45341;-67
2022/07/29 07:24:51;;;;;;;;;7.33;7.00;;;;;35.94;19.30;101132.06;5017659;28;45489;-67
2022/07/29 07:27:16;;;;;;;;;7.67;6.67;;;;;36.51;19.01;101158.41;5015866;28;45314;-67
2022/07/29 07:29:41;;;;;;;;;9.33;8.00;;;;;36.88;18.65;101142.69;5017439;28;46888;-67
2022/07/29 07:32:07;;;;;;;;;9.00;7.67;;;;;37.00;18.40;101103.31;5017502;28;45351;-67
2022/07/29 07:34:33;;;;;;;;;9.67;8.00;;;;;37.62;17.85;101136.78;5017370;28;45359;-66
2022/07/29 07:36:58;;;;;;;;;9.00;9.00;;;;;38.11;17.48;101146.91;5017490;28;45432;-67
2022/07/29 07:39:25;;;;;;;;;9.00;9.00;;;;;38.61;17.21;101164.09;5015702;28;48259;-66
2022/07/29 07:41:54;;;;;;;;;9.00;9.00;;;;;38.80;16.88;101152.72;5017451;28;45451;-68
2022/07/29 07:44:19;;;;;;;;;7.00;7.00;;;;;39.05;16.10;101159.50;5017334;28;45328;-67
2022/07/29 07:46:44;;;;;;;;;9.67;8.67;;;;;39.22;16.04;101161.47;5017371;28;45381;-67
2022/07/29 07:49:10;;;;;;;;;12.00;9.33;;;;;39.50;16.12;101162.78;5017046;28;46248;-68
2022/07/29 07:51:36;;;;;;;;;8.67;7.33;;;;;39.91;15.67;101163.41;5017072;28;45323;-67
2022/07/29 07:54:01;;;;;;;;;10.33;9.00;;;;;40.00;15.82;101150.28;5015705;28;45231;-68
2022/07/29 07:56:27;;;;;;;;;6.33;6.33;;;;;40.35;15.30;101170.47;5017298;28;45419;-69
2022/07/29 07:58:53;;;;;;;;;7.00;7.00;;;;;40.41;15.06;101169.16;5016825;28;46414;-68
2022/07/29 08:01:20;;;;;;;;;8.00;8.00;;;;;40.33;15.08;101154.09;5015354;28;45481;-67
2022/07/29 08:03:46;;;;;;;;;9.00;8.67;;;;;40.49;15.38;101165.53;5017062;28;45516;-67
2022/07/29 08:06:11;;;;;;;;;9.00;9.00;;;;;40.35;15.12;101132.28;5017054;28;45442;-67
2022/07/29 08:08:37;;;;;;;;;11.67;8.33;;;;;40.63;15.15;101168.88;5017183;28;47540;-65
2022/07/29 08:11:03;;;;;;;;;6.00;6.00;;;;;40.62;14.71;101139.38;5015878;28;45340;-67
2022/07/29 08:13:29;;;;;;;;;7.00;5.33;;;;;40.81;14.37;101164.03;5017056;28;45376;-67
2022/07/29 08:16:14;;;;;;;;;8.00;7.67;;;;;40.86;13.94;101175.03;5015723;28;45230;-68
2022/07/29 08:18:42;;;;;;;;;7.33;6.67;;;;;40.85;13.90;101161.38;5031913;28;46681;-67
2022/07/29 08:21:07;;;;;;;;;6.00;4.67;;;;;41.02;14.35;101170.44;5016512;28;45328;-65
2022/07/29 08:23:39;;;;;;;;;8.00;5.67;;;;;41.04;13.72;101151.41;5016744;28;45587;-66
2022/07/29 08:26:12;;;;;;;;;4.33;4.33;;;;;41.26;13.34;101167.03;5017174;28;45395;-65
2022/07/29 08:28:38;;;;;;;;;6.67;6.67;;;;;41.32;13.51;101134.97;5031886;28;47136;-67
2022/07/29 08:31:04;;;;;;;;;5.00;5.00;;;;;41.24;13.17;101107.94;5016664;28;45249;-68
2022/07/29 08:33:29;;;;;;;;;2.67;2.33;;;;;41.38;13.30;101151.50;5016884;28;45462;-67
2022/07/29 08:35:55;;;;;;;;;7.33;6.00;;;;;41.46;12.95;101153.41;5016954;28;45617;-66
2022/07/29 08:38:20;;;;;;;;;7.33;6.33;;;;;41.22;12.32;101149.28;5031903;28;48095;-66
2022/07/29 08:40:46;;;;;;;;;7.00;5.33;;;;;41.13;12.78;101162.50;5015265;28;46009;-67
2022/07/29 08:43:13;;;;;;;;;5.00;5.00;;;;;41.09;12.68;101166.31;5016669;28;45362;-67
2022/07/29 08:45:48;;;;;;;;;5.67;4.00;;;;;41.02;13.18;101169.63;5016738;28;45491;-67
2022/07/29 08:48:19;;;;;;;;;5.67;4.67;;;;;41.07;13.12;101163.88;5031340;28;48128;-67
2022/07/29 08:50:47;;;;;;;;;4.00;4.00;;;;;41.14;12.66;101147.41;5016025;28;45364;-67
2022/07/29 08:53:14;;;;;;;;;6.33;5.67;;;;;41.32;12.85;101162.88;5016110;28;45286;-68
2022/07/29 08:55:43;;;;;;;;;5.00;5.00;;;;;41.35;12.77;101136.25;5016044;28;45257;-66
2022/07/29 08:58:08;;;;;;;;;3.67;3.67;;;;;41.74;12.54;101171.19;5015826;28;46842;-67
2022/07/29 09:00:36;;;;;;;;;5.33;5.33;;;;;41.72;12.33;101162.34;5015629;28;45546;-68
2022/07/29 09:03:04;;;;;;;;;4.00;3.00;;;;;41.97;12.20;101167.97;5014826;28;45300;-67
2022/07/29 09:05:31;;;;;;;;;4.00;4.00;;;;;41.84;12.12;101162.34;5016439;28;45333;-67
2022/07/29 09:07:57;;;;;;;;;6.00;3.33;;;;;41.67;11.82;101154.19;5016281;28;45609;-68
2022/07/29 09:10:23;;;;;;;;;3.33;3.33;;;;;41.81;12.27;101160.25;5016243;28;45313;-66
2022/07/29 09:12:48;;;;;;;;;5.00;5.00;;;;;41.78;12.21;101149.78;5016239;28;45471;-67
2022/07/29 09:15:14;;;;;;;;;3.33;3.33;;;;;41.93;11.79;101160.31;5016379;28;45455;-68
2022/07/29 09:17:48;;;;;;;;;4.67;4.67;;;;;41.10;12.68;101103.78;5014683;28;47527;-66
2022/07/29 09:20:19;;;;;;;;;5.00;4.00;;;;;41.92;12.40;101169.84;5031360;28;45330;-66
2022/07/29 09:22:49;;;;;;;;;9.67;9.00;;;;;42.37;11.95;101129.84;5033281;28;45560;-67
2022/07/29 09:25:33;;;;;;;;;3.00;3.00;;;;;43.24;11.74;101120.16;5034877;28;45440;-67
2022/07/29 09:28:17;;;;;;;;;7.67;3.33;;;;;44.57;10.52;101126.13;5017875;28;48380;-66
2022/07/29 09:30:54;;;;;;;;;4.00;3.00;;;;;45.99;9.84;101148.69;5019074;28;45285;-66
2022/07/29 09:33:30;;;;;;;;;6.67;5.67;;;;;46.92;8.96;101136.13;5034509;28;45274;-65
2022/07/29 09:36:06;;;;;;;;;4.33;4.33;;;;;48.03;8.48;101141.81;5019493;28;45280;-68
2022/07/29 09:38:33;;;;;;;;;4.00;4.00;;;;;49.12;8.12;101147.81;5019242;28;46369;-65
2022/07/29 09:41:01;;;;;;;;;2.67;2.00;;;;;49.79;7.55;101099.13;5019051;28;45526;-67
2022/07/29 09:43:27;;;;;;;;;3.33;3.33;;;;;50.97;6.86;101151.50;5019113;28;45340;-69
2022/07/29 09:45:53;;;;;;;;;0.00;0.00;;;;;51.27;7.16;101107.69;5019495;28;45545;-67
2022/07/29 09:48:24;;;;;;;;;2.00;2.00;;;;;52.11;5.80;101158.56;5018779;28;45557;-68
2022/07/29 09:50:53;;;;;;;;;3.00;3.00;;;;;52.38;6.62;101144.53;5018564;28;45423;-67
2022/07/29 09:53:36;;;;;;;;;4.00;4.00;;;;;52.50;6.11;101164.69;5018969;28;45271;-68
2022/07/29 09:56:03;;;;;;;;;3.00;3.00;;;;;52.40;6.39;101150.59;5019130;28;45487;-68
2022/07/29 09:58:33;;;;;;;;;3.00;3.00;;;;;52.05;6.23;101131.84;5018601;28;46290;-66
2022/07/29 10:00:59;;;;;;;;;4.00;4.00;;;;;51.68;6.33;101153.19;5019005;28;45340;-68
2022/07/29 10:03:25;;;;;;;;;2.00;2.00;;;;;51.26;6.88;101143.69;5018825;28;45428;-68
2022/07/29 10:06:11;;;;;;;;;7.00;5.00;;;;;51.21;6.71;101152.63;5017434;28;45670;-66
2022/07/29 10:08:46;;;;;;;;;6.67;6.67;;;;;49.88;7.21;101026.84;5033745;28;48108;-69
2022/07/29 10:11:17;;;;;;;;;3.33;3.33;;;;;49.66;7.23;101148.78;5016918;28;45254;-69
2022/07/29 10:13:45;;;;;;;;;6.67;5.00;;;;;48.12;8.44;101149.94;5018815;28;45506;-67
2022/07/29 10:16:12;;;;;;;;;7.00;6.67;;;;;46.75;8.96;101131.84;5033920;28;45593;-67
2022/07/29 10:18:39;;;;;;;;;2.67;2.67;;;;;45.24;9.65;101159.66;5018405;28;45487;-66
2022/07/29 10:21:05;;;;;;;;;3.00;2.00;;;;;43.76;10.50;101153.66;5018876;28;45190;-66
2022/07/29 10:23:31;;;;;;;;;3.00;3.00;;;;;42.10;11.64;101144.53;5018483;28;45284;-68
2022/07/29 10:25:57;;;;;;;;;3.00;3.00;;;;;40.82;12.63;101146.16;5018860;28;45254;-68
2022/07/29 10:28:23;;;;;;;;;3.67;3.67;;;;;39.93;14.01;101150.78;5033285;28;46243;-69
2022/07/29 10:30:58;;;;;;;;;4.67;4.00;;;;;38.74;14.28;101087.34;5033685;28;45399;-65
2022/07/29 10:33:59;;;;;;;;;6.00;5.00;;;;;38.45;14.73;101148.22;5017723;28;45698;-67
2022/07/29 10:36:38;;;;;;;;;4.33;4.00;;;;;37.86;15.32;101159.53;5018575;28;45211;-67
2022/07/29 10:39:27;;;;;;;;;3.67;3.67;;;;;37.19;15.45;101153.06;5033363;28;46785;-67
2022/07/29 10:42:00;;;;;;;;;5.00;5.00;;;;;36.63;16.34;101165.34;4998350;28;45560;-66
2022/07/29 10:44:27;;;;;;;;;5.33;4.00;;;;;36.12;16.98;101144.19;5017836;28;45569;-68
2022/07/29 10:46:53;;;;;;;;;29.67;29.33;;;;;35.77;17.10;101151.97;5018071;28;45287;-68
2022/07/29 10:49:27;;;;;;;;;5.00;5.00;;;;;35.39;17.08;101162.28;5017853;28;46088;-65
2022/07/29 10:52:03;;;;;;;;;3.00;3.00;;;;;34.83;17.56;101163.00;5018006;28;45214;-67
2022/07/29 10:54:39;;;;;;;;;4.67;4.67;;;;;34.43;18.68;101164.31;5018154;28;45296;-67
2022/07/29 10:57:21;;;;;;;;;9.67;7.67;;;;;33.66;18.50;101086.19;5033175;28;45530;-66
2022/07/29 10:59:49;;;;;;;;;9.67;7.33;;;;;33.56;18.71;101085.13;5016227;28;47066;-66
2022/07/29 11:02:32;;;;;;;;;5.33;5.33;;;;;33.77;19.35;101164.94;5017837;28;45236;-65
2022/07/29 11:04:58;;;;;;;;;4.00;4.00;;;;;33.61;19.53;101169.75;5017812;28;45493;-66
2022/07/29 11:07:25;;;;;;;;;5.00;5.00;;;;;33.46;19.80;101164.38;5017403;28;45205;-67
2022/07/29 11:10:11;;;;;;;;;4.67;4.67;;;;;33.32;19.66;101161.41;5017697;28;45704;-68
2022/07/29 11:12:37;;;;;;;;;5.33;5.33;;;;;33.03;19.96;101160.44;5016042;28;46364;-64
2022/07/29 11:15:04;;;;;;;;;4.67;4.67;;;;;32.84;20.46;101158.38;5017808;28;45391;-67
2022/07/29 11:17:53;;;;;;;;;5.33;5.33;;;;;32.81;20.62;101158.91;5016653;28;45315;-66
2022/07/29 11:20:34;;;;;;;;;6.00;6.00;;;;;32.70;20.75;101154.53;5017483;28;46615;-64
2022/07/29 11:23:00;;;;;;;;;7.67;7.67;;;;;32.20;21.05;101128.78;5017620;28;45334;-67
2022/07/29 11:25:26;;;;;;;;;11.00;10.00;;;;;32.28;20.79;101158.53;5016217;28;45493;-68
2022/07/29 11:28:08;;;;;;;;;12.67;10.33;;;;;32.17;21.48;101162.34;5017741;28;45342;-65
2022/07/29 11:30:56;;;;;;;;;7.33;7.00;;;;;32.00;21.29;101156.31;5016203;28;47195;-65
2022/07/29 11:33:32;;;;;;;;;4.33;3.00;;;;;31.95;21.50;101148.91;5017455;28;45348;-67
2022/07/29 11:36:12;;;;;;;;;6.00;6.00;;;;;31.94;22.29;101161.00;5015828;28;45417;-66